sensor_id;sensor_type;location;lat;lon;timestamp;P1;durP1;ratioP1;P2;durP2;ratioP2
21122;SDS011;10719;48.130;11.630;2023-03-19T00:01:55;8.93;;;3.70;;
21122;SDS011;10719;48.130;11.630;2023-03-19T00:04:21;11.40;;;4.07;;
21122;SDS011;10719;48.130;11.630;2023-03-19T00:06:48;13.55;;;4.53;;
21122;SDS011;10719;48.130;11.630;2023-03-19T00:09:15;13.75;;;4.70;;
21122;SDS011;10719;48.130;11.630;2023-03-19T00:11:41;11.80;;;4.35;;
21122;SDS011;10719;48.130;11.630;2023-03-19T00:14:07;11.40;;;4.35;;
21122;SDS011;10719;48.130;11.630;2023-03-19T00:16:32;12.30;;;4.75;;
21122;SDS011;10719;48.130;11.630;2023-03-19T00:18:58;12.82;;;4.32;;
21122;SDS011;10719;48.130;11.630;2023-03-19T00:21:25;11.88;;;4.03;;
21122;SDS011;10719;48.130;11.630;2023-03-19T00:23:51;8.80;;;4.20;;
21122;SDS011;10719;48.130;11.630;2023-03-19T00:26:16;11.25;;;4.68;;
21122;SDS011;10719;48.130;11.630;2023-03-19T00:28:42;10.77;;;3.88;;
21122;SDS011;10719;48.130;11.630;2023-03-19T00:31:09;15.35;;;4.90;;
21122;SDS011;10719;48.130;11.630;2023-03-19T00:33:39;13.18;;;4.63;;
21122;SDS011;10719;48.130;11.630;2023-03-19T00:36:05;8.48;;;3.28;;
21122;SDS011;10719;48.130;11.630;2023-03-19T00:38:31;13.25;;;4.72;;
21122;SDS011;10719;48.130;11.630;2023-03-19T00:40:58;12.77;;;4.43;;
21122;SDS011;10719;48.130;11.630;2023-03-19T00:43:24;12.48;;;4.22;;
21122;SDS011;10719;48.130;11.630;2023-03-19T00:45:51;11.52;;;4.57;;
21122;SDS011;10719;48.130;11.630;2023-03-19T00:48:16;9.02;;;3.88;;
21122;SDS011;10719;48.130;11.630;2023-03-19T00:50:42;9.68;;;3.70;;
21122;SDS011;10719;48.130;11.630;2023-03-19T00:53:08;12.45;;;4.75;;
21122;SDS011;10719;48.130;11.630;2023-03-19T00:55:34;15.05;;;4.53;;
21122;SDS011;10719;48.130;11.630;2023-03-19T00:58:00;13.73;;;4.88;;
21122;SDS011;10719;48.130;11.630;2023-03-19T01:00:25;8.65;;;3.67;;
21122;SDS011;10719;48.130;11.630;2023-03-19T01:02:51;9.00;;;3.50;;
21122;SDS011;10719;48.130;11.630;2023-03-19T01:05:17;8.98;;;3.83;;
21122;SDS011;10719;48.130;11.630;2023-03-19T01:07:43;10.90;;;3.60;;
21122;SDS011;10719;48.130;11.630;2023-03-19T01:10:09;9.13;;;3.97;;
21122;SDS011;10719;48.130;11.630;2023-03-19T01:12:35;12.32;;;4.57;;
21122;SDS011;10719;48.130;11.630;2023-03-19T01:15:01;10.07;;;3.83;;
21122;SDS011;10719;48.130;11.630;2023-03-19T01:17:28;8.18;;;3.63;;
21122;SDS011;10719;48.130;11.630;2023-03-19T01:19:54;11.70;;;4.22;;
21122;SDS011;10719;48.130;11.630;2023-03-19T01:22:19;10.52;;;4.35;;
21122;SDS011;10719;48.130;11.630;2023-03-19T01:24:45;13.50;;;4.20;;
21122;SDS011;10719;48.130;11.630;2023-03-19T01:27:11;13.40;;;4.22;;
21122;SDS011;10719;48.130;11.630;2023-03-19T01:29:37;13.90;;;4.45;;
21122;SDS011;10719;48.130;11.630;2023-03-19T01:32:02;10.45;;;3.70;;
21122;SDS011;10719;48.130;11.630;2023-03-19T01:34:28;9.25;;;3.22;;
21122;SDS011;10719;48.130;11.630;2023-03-19T01:36:54;8.25;;;3.67;;
21122;SDS011;10719;48.130;11.630;2023-03-19T01:39:19;9.55;;;3.40;;
21122;SDS011;10719;48.130;11.630;2023-03-19T01:41:45;9.80;;;3.55;;
21122;SDS011;10719;48.130;11.630;2023-03-19T01:46:51;7.88;;;2.85;;
21122;SDS011;10719;48.130;11.630;2023-03-19T01:49:18;8.65;;;2.70;;
21122;SDS011;10719;48.130;11.630;2023-03-19T01:51:46;8.23;;;3.25;;
21122;SDS011;10719;48.130;11.630;2023-03-19T01:54:17;10.75;;;3.40;;
21122;SDS011;10719;48.130;11.630;2023-03-19T01:56:45;10.23;;;3.30;;
21122;SDS011;10719;48.130;11.630;2023-03-19T01:59:17;7.00;;;2.67;;
21122;SDS011;10719;48.130;11.630;2023-03-19T02:01:57;8.77;;;2.88;;
21122;SDS011;10719;48.130;11.630;2023-03-19T02:04:27;6.53;;;2.85;;
21122;SDS011;10719;48.130;11.630;2023-03-19T02:06:55;8.18;;;2.58;;
21122;SDS011;10719;48.130;11.630;2023-03-19T02:09:23;6.13;;;2.50;;
21122;SDS011;10719;48.130;11.630;2023-03-19T02:11:51;8.35;;;2.67;;
21122;SDS011;10719;48.130;11.630;2023-03-19T02:14:17;7.15;;;3.08;;
21122;SDS011;10719;48.130;11.630;2023-03-19T02:16:43;5.30;;;2.20;;
21122;SDS011;10719;48.130;11.630;2023-03-19T02:19:09;8.43;;;3.25;;
21122;SDS011;10719;48.130;11.630;2023-03-19T02:21:40;6.72;;;2.47;;
21122;SDS011;10719;48.130;11.630;2023-03-19T02:24:07;8.48;;;2.92;;
21122;SDS011;10719;48.130;11.630;2023-03-19T02:26:41;6.53;;;2.40;;
21122;SDS011;10719;48.130;11.630;2023-03-19T02:29:08;8.70;;;2.78;;
21122;SDS011;10719;48.130;11.630;2023-03-19T02:31:34;11.45;;;3.28;;
21122;SDS011;10719;48.130;11.630;2023-03-19T02:36:28;5.18;;;2.55;;
21122;SDS011;10719;48.130;11.630;2023-03-19T02:39:07;5.25;;;2.70;;
21122;SDS011;10719;48.130;11.630;2023-03-19T02:41:43;7.07;;;2.40;;
21122;SDS011;10719;48.130;11.630;2023-03-19T02:44:09;8.65;;;3.33;;
21122;SDS011;10719;48.130;11.630;2023-03-19T02:46:36;5.03;;;2.53;;
21122;SDS011;10719;48.130;11.630;2023-03-19T02:49:02;10.27;;;2.75;;
21122;SDS011;10719;48.130;11.630;2023-03-19T02:51:29;9.05;;;3.20;;
21122;SDS011;10719;48.130;11.630;2023-03-19T02:53:55;9.18;;;3.25;;
21122;SDS011;10719;48.130;11.630;2023-03-19T02:56:21;4.93;;;2.75;;
21122;SDS011;10719;48.130;11.630;2023-03-19T02:58:46;5.53;;;2.40;;
21122;SDS011;10719;48.130;11.630;2023-03-19T03:01:12;7.95;;;2.95;;
21122;SDS011;10719;48.130;11.630;2023-03-19T03:03:38;6.63;;;2.65;;
21122;SDS011;10719;48.130;11.630;2023-03-19T03:06:03;12.32;;;3.35;;
21122;SDS011;10719;48.130;11.630;2023-03-19T03:08:30;7.20;;;2.13;;
21122;SDS011;10719;48.130;11.630;2023-03-19T03:10:55;9.02;;;2.90;;
21122;SDS011;10719;48.130;11.630;2023-03-19T03:13:21;7.90;;;2.88;;
21122;SDS011;10719;48.130;11.630;2023-03-19T03:15:46;7.65;;;2.08;;
21122;SDS011;10719;48.130;11.630;2023-03-19T03:18:12;6.20;;;2.28;;
21122;SDS011;10719;48.130;11.630;2023-03-19T03:20:37;6.72;;;2.65;;
21122;SDS011;10719;48.130;11.630;2023-03-19T03:23:03;9.43;;;3.05;;
21122;SDS011;10719;48.130;11.630;2023-03-19T03:25:29;6.53;;;1.63;;
21122;SDS011;10719;48.130;11.630;2023-03-19T03:27:55;10.43;;;3.35;;
21122;SDS011;10719;48.130;11.630;2023-03-19T03:30:20;4.95;;;1.98;;
21122;SDS011;10719;48.130;11.630;2023-03-19T03:32:46;5.03;;;2.28;;
21122;SDS011;10719;48.130;11.630;2023-03-19T03:35:11;5.10;;;1.90;;
21122;SDS011;10719;48.130;11.630;2023-03-19T03:37:37;4.57;;;2.03;;
21122;SDS011;10719;48.130;11.630;2023-03-19T03:40:04;6.03;;;2.63;;
21122;SDS011;10719;48.130;11.630;2023-03-19T03:42:34;8.02;;;2.63;;
21122;SDS011;10719;48.130;11.630;2023-03-19T03:45:01;8.30;;;2.40;;
21122;SDS011;10719;48.130;11.630;2023-03-19T03:47:26;7.15;;;2.53;;
21122;SDS011;10719;48.130;11.630;2023-03-19T03:49:52;5.70;;;2.28;;
21122;SDS011;10719;48.130;11.630;2023-03-19T03:52:18;4.68;;;2.20;;
21122;SDS011;10719;48.130;11.630;2023-03-19T03:54:43;5.93;;;2.50;;
21122;SDS011;10719;48.130;11.630;2023-03-19T03:57:09;5.55;;;2.10;;
21122;SDS011;10719;48.130;11.630;2023-03-19T03:59:34;11.70;;;3.25;;
21122;SDS011;10719;48.130;11.630;2023-03-19T04:02:00;3.13;;;1.77;;
21122;SDS011;10719;48.130;11.630;2023-03-19T04:04:25;3.58;;;1.95;;
21122;SDS011;10719;48.130;11.630;2023-03-19T04:06:51;3.88;;;1.65;;
21122;SDS011;10719;48.130;11.630;2023-03-19T04:09:17;3.50;;;1.95;;
21122;SDS011;10719;48.130;11.630;2023-03-19T04:11:43;6.82;;;2.63;;
21122;SDS011;10719;48.130;11.630;2023-03-19T04:14:09;4.28;;;2.10;;
21122;SDS011;10719;48.130;11.630;2023-03-19T04:16:35;5.60;;;2.28;;
21122;SDS011;10719;48.130;11.630;2023-03-19T04:19:00;6.10;;;2.05;;
21122;SDS011;10719;48.130;11.630;2023-03-19T04:21:26;7.28;;;2.38;;
21122;SDS011;10719;48.130;11.630;2023-03-19T04:23:52;6.35;;;2.28;;
21122;SDS011;10719;48.130;11.630;2023-03-19T04:26:18;3.63;;;1.60;;
21122;SDS011;10719;48.130;11.630;2023-03-19T04:28:43;5.20;;;2.28;;
21122;SDS011;10719;48.130;11.630;2023-03-19T04:31:09;11.10;;;3.40;;
21122;SDS011;10719;48.130;11.630;2023-03-19T04:33:35;8.90;;;2.55;;
21122;SDS011;10719;48.130;11.630;2023-03-19T04:36:01;9.18;;;2.42;;
21122;SDS011;10719;48.130;11.630;2023-03-19T04:38:27;5.28;;;1.92;;
21122;SDS011;10719;48.130;11.630;2023-03-19T04:40:53;9.80;;;2.47;;
21122;SDS011;10719;48.130;11.630;2023-03-19T04:43:20;7.40;;;2.55;;
21122;SDS011;10719;48.130;11.630;2023-03-19T04:45:46;6.03;;;2.80;;
21122;SDS011;10719;48.130;11.630;2023-03-19T04:48:12;9.52;;;2.88;;
21122;SDS011;10719;48.130;11.630;2023-03-19T04:50:38;4.72;;;2.33;;
21122;SDS011;10719;48.130;11.630;2023-03-19T04:53:04;4.85;;;1.88;;
21122;SDS011;10719;48.130;11.630;2023-03-19T04:55:30;7.28;;;2.53;;
21122;SDS011;10719;48.130;11.630;2023-03-19T04:57:56;5.18;;;2.47;;
21122;SDS011;10719;48.130;11.630;2023-03-19T05:00:22;9.65;;;3.47;;
21122;SDS011;10719;48.130;11.630;2023-03-19T05:02:47;8.10;;;2.83;;
21122;SDS011;10719;48.130;11.630;2023-03-19T05:05:13;4.88;;;1.98;;
21122;SDS011;10719;48.130;11.630;2023-03-19T05:07:40;9.15;;;2.53;;
21122;SDS011;10719;48.130;11.630;2023-03-19T05:10:06;5.28;;;2.28;;
21122;SDS011;10719;48.130;11.630;2023-03-19T05:12:33;4.45;;;1.95;;
21122;SDS011;10719;48.130;11.630;2023-03-19T05:14:59;6.45;;;2.28;;
21122;SDS011;10719;48.130;11.630;2023-03-19T05:17:24;7.47;;;3.05;;
21122;SDS011;10719;48.130;11.630;2023-03-19T05:19:51;5.50;;;2.20;;
21122;SDS011;10719;48.130;11.630;2023-03-19T05:22:17;3.08;;;1.92;;
21122;SDS011;10719;48.130;11.630;2023-03-19T05:24:43;5.35;;;2.20;;
21122;SDS011;10719;48.130;11.630;2023-03-19T05:27:09;6.32;;;2.22;;
21122;SDS011;10719;48.130;11.630;2023-03-19T05:29:36;6.35;;;2.10;;
21122;SDS011;10719;48.130;11.630;2023-03-19T05:32:01;5.50;;;2.20;;
21122;SDS011;10719;48.130;11.630;2023-03-19T05:34:27;4.72;;;2.03;;
21122;SDS011;10719;48.130;11.630;2023-03-19T05:36:53;7.07;;;2.40;;
21122;SDS011;10719;48.130;11.630;2023-03-19T05:39:19;6.18;;;2.10;;
21122;SDS011;10719;48.130;11.630;2023-03-19T05:41:45;5.85;;;2.38;;
21122;SDS011;10719;48.130;11.630;2023-03-19T05:44:11;8.18;;;2.42;;
21122;SDS011;10719;48.130;11.630;2023-03-19T05:46:36;5.28;;;2.33;;
21122;SDS011;10719;48.130;11.630;2023-03-19T05:49:02;6.45;;;2.47;;
21122;SDS011;10719;48.130;11.630;2023-03-19T05:51:28;3.67;;;1.65;;
21122;SDS011;10719;48.130;11.630;2023-03-19T05:53:54;7.93;;;3.05;;
21122;SDS011;10719;48.130;11.630;2023-03-19T05:56:19;6.63;;;2.70;;
21122;SDS011;10719;48.130;11.630;2023-03-19T05:58:45;4.93;;;2.35;;
21122;SDS011;10719;48.130;11.630;2023-03-19T06:01:11;7.78;;;2.55;;
21122;SDS011;10719;48.130;11.630;2023-03-19T06:03:36;5.50;;;2.25;;
21122;SDS011;10719;48.130;11.630;2023-03-19T06:06:02;6.70;;;2.28;;
21122;SDS011;10719;48.130;11.630;2023-03-19T06:08:28;8.60;;;3.13;;
21122;SDS011;10719;48.130;11.630;2023-03-19T06:10:53;5.28;;;2.38;;
21122;SDS011;10719;48.130;11.630;2023-03-19T06:13:19;11.35;;;3.50;;
21122;SDS011;10719;48.130;11.630;2023-03-19T06:15:46;10.30;;;2.55;;
21122;SDS011;10719;48.130;11.630;2023-03-19T06:18:13;8.90;;;3.03;;
21122;SDS011;10719;48.130;11.630;2023-03-19T06:20:38;8.77;;;3.53;;
21122;SDS011;10719;48.130;11.630;2023-03-19T06:23:04;7.03;;;2.95;;
21122;SDS011;10719;48.130;11.630;2023-03-19T06:25:29;6.95;;;2.38;;
21122;SDS011;10719;48.130;11.630;2023-03-19T06:27:55;8.30;;;3.05;;
21122;SDS011;10719;48.130;11.630;2023-03-19T06:30:21;8.80;;;3.35;;
21122;SDS011;10719;48.130;11.630;2023-03-19T06:32:46;7.93;;;2.65;;
21122;SDS011;10719;48.130;11.630;2023-03-19T06:35:12;12.68;;;3.58;;
21122;SDS011;10719;48.130;11.630;2023-03-19T06:37:38;7.20;;;3.22;;
21122;SDS011;10719;48.130;11.630;2023-03-19T06:40:03;11.45;;;3.85;;
21122;SDS011;10719;48.130;11.630;2023-03-19T06:42:29;7.15;;;2.90;;
21122;SDS011;10719;48.130;11.630;2023-03-19T06:44:55;6.47;;;2.63;;
21122;SDS011;10719;48.130;11.630;2023-03-19T06:47:21;5.95;;;2.65;;
21122;SDS011;10719;48.130;11.630;2023-03-19T06:49:47;7.30;;;3.53;;
21122;SDS011;10719;48.130;11.630;2023-03-19T06:52:12;9.35;;;3.33;;
21122;SDS011;10719;48.130;11.630;2023-03-19T06:54:38;9.13;;;3.72;;
21122;SDS011;10719;48.130;11.630;2023-03-19T06:57:03;5.30;;;2.58;;
21122;SDS011;10719;48.130;11.630;2023-03-19T06:59:29;7.10;;;2.95;;
21122;SDS011;10719;48.130;11.630;2023-03-19T07:01:55;9.73;;;3.35;;
21122;SDS011;10719;48.130;11.630;2023-03-19T07:04:20;13.93;;;4.93;;
21122;SDS011;10719;48.130;11.630;2023-03-19T07:06:46;10.85;;;4.05;;
21122;SDS011;10719;48.130;11.630;2023-03-19T07:09:12;9.75;;;3.20;;
21122;SDS011;10719;48.130;11.630;2023-03-19T07:11:37;11.88;;;2.92;;
21122;SDS011;10719;48.130;11.630;2023-03-19T07:14:03;11.15;;;4.07;;
21122;SDS011;10719;48.130;11.630;2023-03-19T07:16:29;9.23;;;3.47;;
21122;SDS011;10719;48.130;11.630;2023-03-19T07:18:55;6.57;;;2.75;;
21122;SDS011;10719;48.130;11.630;2023-03-19T07:21:20;6.53;;;3.10;;
21122;SDS011;10719;48.130;11.630;2023-03-19T07:23:46;12.82;;;3.30;;
21122;SDS011;10719;48.130;11.630;2023-03-19T07:26:13;12.85;;;3.25;;
21122;SDS011;10719;48.130;11.630;2023-03-19T07:28:38;10.73;;;3.15;;
21122;SDS011;10719;48.130;11.630;2023-03-19T07:31:04;9.25;;;2.75;;
21122;SDS011;10719;48.130;11.630;2023-03-19T07:33:30;6.05;;;2.58;;
21122;SDS011;10719;48.130;11.630;2023-03-19T07:35:56;9.07;;;3.47;;
21122;SDS011;10719;48.130;11.630;2023-03-19T07:38:22;8.75;;;3.30;;
21122;SDS011;10719;48.130;11.630;2023-03-19T07:40:48;8.57;;;2.92;;
21122;SDS011;10719;48.130;11.630;2023-03-19T07:43:15;6.40;;;2.55;;
21122;SDS011;10719;48.130;11.630;2023-03-19T07:45:40;7.93;;;2.92;;
21122;SDS011;10719;48.130;11.630;2023-03-19T07:48:06;7.05;;;2.75;;
21122;SDS011;10719;48.130;11.630;2023-03-19T07:50:32;10.77;;;2.97;;
21122;SDS011;10719;48.130;11.630;2023-03-19T07:52:58;6.88;;;2.63;;
21122;SDS011;10719;48.130;11.630;2023-03-19T07:55:24;8.00;;;3.28;;
21122;SDS011;10719;48.130;11.630;2023-03-19T07:57:49;9.45;;;2.95;;
21122;SDS011;10719;48.130;11.630;2023-03-19T08:00:15;3.50;;;2.15;;
21122;SDS011;10719;48.130;11.630;2023-03-19T08:02:42;12.77;;;2.60;;
21122;SDS011;10719;48.130;11.630;2023-03-19T08:05:08;12.27;;;2.50;;
21122;SDS011;10719;48.130;11.630;2023-03-19T08:07:34;6.68;;;2.35;;
21122;SDS011;10719;48.130;11.630;2023-03-19T08:10:00;7.18;;;2.20;;
21122;SDS011;10719;48.130;11.630;2023-03-19T08:12:27;4.80;;;2.22;;
21122;SDS011;10719;48.130;11.630;2023-03-19T08:14:53;8.00;;;3.00;;
21122;SDS011;10719;48.130;11.630;2023-03-19T08:17:19;9.20;;;2.67;;
21122;SDS011;10719;48.130;11.630;2023-03-19T08:19:45;2.95;;;1.67;;
21122;SDS011;10719;48.130;11.630;2023-03-19T08:22:11;5.93;;;2.35;;
21122;SDS011;10719;48.130;11.630;2023-03-19T08:24:37;7.57;;;3.05;;
21122;SDS011;10719;48.130;11.630;2023-03-19T08:27:02;5.60;;;2.20;;
21122;SDS011;10719;48.130;11.630;2023-03-19T08:29:28;5.07;;;2.57;;
21122;SDS011;10719;48.130;11.630;2023-03-19T08:31:54;6.85;;;2.53;;
21122;SDS011;10719;48.130;11.630;2023-03-19T08:34:21;3.20;;;1.67;;
21122;SDS011;10719;48.130;11.630;2023-03-19T08:36:47;4.13;;;1.67;;
21122;SDS011;10719;48.130;11.630;2023-03-19T08:39:13;9.18;;;2.53;;
21122;SDS011;10719;48.130;11.630;2023-03-19T08:41:39;5.20;;;1.98;;
21122;SDS011;10719;48.130;11.630;2023-03-19T08:44:04;5.13;;;2.13;;
21122;SDS011;10719;48.130;11.630;2023-03-19T08:46:31;6.45;;;2.15;;
21122;SDS011;10719;48.130;11.630;2023-03-19T08:48:57;5.35;;;1.95;;
21122;SDS011;10719;48.130;11.630;2023-03-19T08:51:23;3.28;;;1.58;;
21122;SDS011;10719;48.130;11.630;2023-03-19T08:53:50;5.25;;;2.42;;
21122;SDS011;10719;48.130;11.630;2023-03-19T08:56:16;4.97;;;1.92;;
21122;SDS011;10719;48.130;11.630;2023-03-19T08:58:42;5.45;;;2.00;;
21122;SDS011;10719;48.130;11.630;2023-03-19T09:01:09;5.10;;;2.10;;
21122;SDS011;10719;48.130;11.630;2023-03-19T09:03:37;10.38;;;2.67;;
21122;SDS011;10719;48.130;11.630;2023-03-19T09:06:04;11.63;;;2.38;;
21122;SDS011;10719;48.130;11.630;2023-03-19T09:08:31;4.28;;;2.38;;
21122;SDS011;10719;48.130;11.630;2023-03-19T09:10:58;5.43;;;2.13;;
21122;SDS011;10719;48.130;11.630;2023-03-19T09:13:23;3.80;;;1.85;;
21122;SDS011;10719;48.130;11.630;2023-03-19T09:15:50;5.10;;;1.98;;
21122;SDS011;10719;48.130;11.630;2023-03-19T09:18:16;4.47;;;2.15;;
21122;SDS011;10719;48.130;11.630;2023-03-19T09:20:44;5.22;;;2.05;;
21122;SDS011;10719;48.130;11.630;2023-03-19T09:23:10;6.07;;;2.28;;
21122;SDS011;10719;48.130;11.630;2023-03-19T09:25:35;5.25;;;2.20;;
21122;SDS011;10719;48.130;11.630;2023-03-19T09:28:01;6.80;;;2.50;;
21122;SDS011;10719;48.130;11.630;2023-03-19T09:30:27;6.90;;;2.30;;
21122;SDS011;10719;48.130;11.630;2023-03-19T09:32:53;6.68;;;2.60;;
21122;SDS011;10719;48.130;11.630;2023-03-19T09:35:18;5.80;;;2.15;;
21122;SDS011;10719;48.130;11.630;2023-03-19T09:37:44;3.67;;;2.15;;
21122;SDS011;10719;48.130;11.630;2023-03-19T09:40:20;5.38;;;2.10;;
21122;SDS011;10719;48.130;11.630;2023-03-19T09:43:03;3.35;;;1.80;;
21122;SDS011;10719;48.130;11.630;2023-03-19T09:45:30;6.70;;;2.50;;
21122;SDS011;10719;48.130;11.630;2023-03-19T09:47:57;5.65;;;2.08;;
21122;SDS011;10719;48.130;11.630;2023-03-19T09:50:29;6.55;;;2.35;;
21122;SDS011;10719;48.130;11.630;2023-03-19T09:53:16;2.90;;;1.38;;
21122;SDS011;10719;48.130;11.630;2023-03-19T09:55:51;5.18;;;1.80;;
21122;SDS011;10719;48.130;11.630;2023-03-19T10:00:45;5.75;;;2.03;;
21122;SDS011;10719;48.130;11.630;2023-03-19T10:03:20;4.60;;;1.88;;
21122;SDS011;10719;48.130;11.630;2023-03-19T10:08:39;5.95;;;2.17;;
21122;SDS011;10719;48.130;11.630;2023-03-19T10:14:01;3.55;;;1.60;;
21122;SDS011;10719;48.130;11.630;2023-03-19T10:16:50;4.85;;;2.10;;
21122;SDS011;10719;48.130;11.630;2023-03-19T10:19:23;3.95;;;1.90;;
21122;SDS011;10719;48.130;11.630;2023-03-19T10:22:18;5.38;;;2.10;;
21122;SDS011;10719;48.130;11.630;2023-03-19T10:24:48;4.88;;;1.95;;
21122;SDS011;10719;48.130;11.630;2023-03-19T10:27:17;5.25;;;1.98;;
21122;SDS011;10719;48.130;11.630;2023-03-19T10:29:45;4.53;;;1.88;;
21122;SDS011;10719;48.130;11.630;2023-03-19T10:35:06;3.55;;;1.52;;
21122;SDS011;10719;48.130;11.630;2023-03-19T10:37:53;5.10;;;1.40;;
21122;SDS011;10719;48.130;11.630;2023-03-19T10:40:21;3.00;;;1.58;;
21122;SDS011;10719;48.130;11.630;2023-03-19T10:45:27;8.18;;;2.00;;
21122;SDS011;10719;48.130;11.630;2023-03-19T10:47:55;4.15;;;1.50;;
21122;SDS011;10719;48.130;11.630;2023-03-19T10:50:37;4.25;;;1.63;;
21122;SDS011;10719;48.130;11.630;2023-03-19T10:55:55;2.10;;;1.30;;
21122;SDS011;10719;48.130;11.630;2023-03-19T10:58:28;3.95;;;1.60;;
21122;SDS011;10719;48.130;11.630;2023-03-19T11:00:59;2.58;;;1.23;;
21122;SDS011;10719;48.130;11.630;2023-03-19T11:06:03;1.35;;;1.10;;
21122;SDS011;10719;48.130;11.630;2023-03-19T11:08:42;1.95;;;1.20;;
21122;SDS011;10719;48.130;11.630;2023-03-19T11:13:58;6.78;;;1.95;;
21122;SDS011;10719;48.130;11.630;2023-03-19T11:16:31;3.35;;;1.42;;
21122;SDS011;10719;48.130;11.630;2023-03-19T11:18:57;3.45;;;1.48;;
21122;SDS011;10719;48.130;11.630;2023-03-19T11:21:25;3.35;;;1.30;;
21122;SDS011;10719;48.130;11.630;2023-03-19T11:23:59;4.22;;;1.75;;
21122;SDS011;10719;48.130;11.630;2023-03-19T11:26:27;3.33;;;1.48;;
21122;SDS011;10719;48.130;11.630;2023-03-19T11:28:53;4.40;;;1.20;;
21122;SDS011;10719;48.130;11.630;2023-03-19T11:31:31;3.80;;;1.20;;
21122;SDS011;10719;48.130;11.630;2023-03-19T11:34:07;3.10;;;1.33;;
21122;SDS011;10719;48.130;11.630;2023-03-19T12:18:53;3.08;;;1.40;;
21122;SDS011;10719;48.130;11.630;2023-03-19T12:24:02;2.70;;;1.30;;
21122;SDS011;10719;48.130;11.630;2023-03-19T12:33:06;4.20;;;1.77;;
21122;SDS011;10719;48.130;11.630;2023-03-19T12:35:34;1.88;;;1.10;;
21122;SDS011;10719;48.130;11.630;2023-03-19T12:40:37;8.70;;;1.67;;
21122;SDS011;10719;48.130;11.630;2023-03-19T12:43:17;7.78;;;1.50;;
21122;SDS011;10719;48.130;11.630;2023-03-19T12:45:56;2.03;;;1.20;;
21122;SDS011;10719;48.130;11.630;2023-03-19T12:48:29;6.07;;;1.35;;
21122;SDS011;10719;48.130;11.630;2023-03-19T12:51:02;3.97;;;1.45;;
21122;SDS011;10719;48.130;11.630;2023-03-19T12:56:20;4.75;;;1.23;;
21122;SDS011;10719;48.130;11.630;2023-03-19T12:58:55;3.55;;;1.10;;
21122;SDS011;10719;48.130;11.630;2023-03-19T13:01:31;5.65;;;1.17;;
21122;SDS011;10719;48.130;11.630;2023-03-19T13:04:05;3.95;;;1.20;;
21122;SDS011;10719;48.130;11.630;2023-03-19T13:06:34;1.75;;;1.00;;
21122;SDS011;10719;48.130;11.630;2023-03-19T13:09:13;2.42;;;1.38;;
21122;SDS011;10719;48.130;11.630;2023-03-19T13:11:50;3.65;;;1.48;;
21122;SDS011;10719;48.130;11.630;2023-03-19T13:14:48;3.90;;;1.60;;
21122;SDS011;10719;48.130;11.630;2023-03-19T13:20:18;2.85;;;1.45;;
21122;SDS011;10719;48.130;11.630;2023-03-19T13:22:48;3.05;;;1.38;;
21122;SDS011;10719;48.130;11.630;2023-03-19T13:25:21;4.15;;;1.40;;
21122;SDS011;10719;48.130;11.630;2023-03-19T13:27:53;3.25;;;1.42;;
21122;SDS011;10719;48.130;11.630;2023-03-19T13:30:19;6.00;;;1.67;;
21122;SDS011;10719;48.130;11.630;2023-03-19T13:32:51;3.03;;;0.90;;
21122;SDS011;10719;48.130;11.630;2023-03-19T13:35:33;2.30;;;1.00;;
21122;SDS011;10719;48.130;11.630;2023-03-19T13:38:45;3.47;;;1.20;;
21122;SDS011;10719;48.130;11.630;2023-03-19T13:43:57;5.22;;;1.42;;
21122;SDS011;10719;48.130;11.630;2023-03-19T13:46:37;2.35;;;1.17;;
21122;SDS011;10719;48.130;11.630;2023-03-19T13:49:09;2.25;;;1.00;;
21122;SDS011;10719;48.130;11.630;2023-03-19T13:51:58;2.75;;;1.25;;
21122;SDS011;10719;48.130;11.630;2023-03-19T13:54:33;2.58;;;1.20;;
21122;SDS011;10719;48.130;11.630;2023-03-19T13:57:05;6.03;;;1.50;;
21122;SDS011;10719;48.130;11.630;2023-03-19T13:59:43;3.95;;;1.13;;
21122;SDS011;10719;48.130;11.630;2023-03-19T14:04:48;2.92;;;1.10;;
21122;SDS011;10719;48.130;11.630;2023-03-19T14:07:17;2.92;;;1.33;;
21122;SDS011;10719;48.130;11.630;2023-03-19T14:10:02;4.78;;;1.40;;
21122;SDS011;10719;48.130;11.630;2023-03-19T14:15:03;2.47;;;1.13;;
21122;SDS011;10719;48.130;11.630;2023-03-19T14:23:01;4.28;;;1.42;;
21122;SDS011;10719;48.130;11.630;2023-03-19T14:28:34;3.63;;;1.30;;
21122;SDS011;10719;48.130;11.630;2023-03-19T14:31:05;4.90;;;1.75;;
21122;SDS011;10719;48.130;11.630;2023-03-19T14:33:43;3.88;;;1.58;;
21122;SDS011;10719;48.130;11.630;2023-03-19T14:36:16;3.47;;;1.58;;
21122;SDS011;10719;48.130;11.630;2023-03-19T14:41:16;3.92;;;1.50;;
21122;SDS011;10719;48.130;11.630;2023-03-19T14:46:41;2.88;;;1.40;;
21122;SDS011;10719;48.130;11.630;2023-03-19T14:52:15;5.47;;;1.80;;
21122;SDS011;10719;48.130;11.630;2023-03-19T14:55:12;4.25;;;1.63;;
21122;SDS011;10719;48.130;11.630;2023-03-19T14:57:39;4.32;;;1.50;;
21122;SDS011;10719;48.130;11.630;2023-03-19T15:00:06;3.92;;;1.42;;
21122;SDS011;10719;48.130;11.630;2023-03-19T15:02:46;9.80;;;1.50;;
21122;SDS011;10719;48.130;11.630;2023-03-19T15:05:49;3.10;;;1.33;;
21122;SDS011;10719;48.130;11.630;2023-03-19T15:08:11;6.10;;;1.65;;
21122;SDS011;10719;48.130;11.630;2023-03-19T15:10:53;2.95;;;1.30;;
21122;SDS011;10719;48.130;11.630;2023-03-19T15:19:33;4.18;;;1.67;;
21122;SDS011;10719;48.130;11.630;2023-03-19T15:22:19;4.68;;;1.77;;
21122;SDS011;10719;48.130;11.630;2023-03-19T15:25:03;1.90;;;1.20;;
21122;SDS011;10719;48.130;11.630;2023-03-19T15:27:34;2.65;;;1.27;;
21122;SDS011;10719;48.130;11.630;2023-03-19T15:30:00;4.50;;;1.52;;
21122;SDS011;10719;48.130;11.630;2023-03-19T15:32:33;3.97;;;1.65;;
21122;SDS011;10719;48.130;11.630;2023-03-19T15:35:00;7.65;;;1.70;;
21122;SDS011;10719;48.130;11.630;2023-03-19T15:37:26;7.40;;;2.25;;
21122;SDS011;10719;48.130;11.630;2023-03-19T15:39:56;3.38;;;1.70;;
21122;SDS011;10719;48.130;11.630;2023-03-19T15:42:25;3.85;;;1.45;;
21122;SDS011;10719;48.130;11.630;2023-03-19T15:44:54;6.32;;;2.08;;
21122;SDS011;10719;48.130;11.630;2023-03-19T15:47:23;4.65;;;1.75;;
21122;SDS011;10719;48.130;11.630;2023-03-19T15:49:53;7.43;;;1.73;;
21122;SDS011;10719;48.130;11.630;2023-03-19T15:52:36;3.15;;;1.27;;
21122;SDS011;10719;48.130;11.630;2023-03-19T15:55:05;3.15;;;1.40;;
21122;SDS011;10719;48.130;11.630;2023-03-19T15:57:35;3.65;;;1.27;;
21122;SDS011;10719;48.130;11.630;2023-03-19T16:00:05;6.20;;;2.10;;
21122;SDS011;10719;48.130;11.630;2023-03-19T16:02:38;3.10;;;1.52;;
21122;SDS011;10719;48.130;11.630;2023-03-19T16:05:06;4.75;;;1.70;;
21122;SDS011;10719;48.130;11.630;2023-03-19T16:07:42;3.15;;;1.58;;
21122;SDS011;10719;48.130;11.630;2023-03-19T16:10:28;3.92;;;1.77;;
21122;SDS011;10719;48.130;11.630;2023-03-19T16:13:00;5.82;;;1.92;;
21122;SDS011;10719;48.130;11.630;2023-03-19T16:15:34;2.88;;;1.50;;
21122;SDS011;10719;48.130;11.630;2023-03-19T16:20:41;2.15;;;1.00;;
21122;SDS011;10719;48.130;11.630;2023-03-19T16:23:08;4.25;;;1.55;;
21122;SDS011;10719;48.130;11.630;2023-03-19T16:25:42;3.17;;;1.55;;
21122;SDS011;10719;48.130;11.630;2023-03-19T16:28:17;4.55;;;1.65;;
21122;SDS011;10719;48.130;11.630;2023-03-19T16:30:47;3.70;;;1.10;;
21122;SDS011;10719;48.130;11.630;2023-03-19T16:33:14;3.15;;;1.35;;
21122;SDS011;10719;48.130;11.630;2023-03-19T16:35:40;5.85;;;1.38;;
21122;SDS011;10719;48.130;11.630;2023-03-19T16:40:41;3.70;;;1.60;;
21122;SDS011;10719;48.130;11.630;2023-03-19T16:43:15;4.55;;;1.60;;
21122;SDS011;10719;48.130;11.630;2023-03-19T16:45:48;3.33;;;1.45;;